Terminal Aerodrome Forecast
Issued by NWS Portland, OR

Home | Current Version | Previous Version | Text Only | Print | Product List | Glossary On
Versions: 1 2 3 4 5 6 7 8 9 10 11 12 13 14 15 16 17 18 19 20 21 22
000
FTUS46 KPQR 301120
TAFTTD
TAF
KTTD 301120Z 3012/3112 09015G23KT P6SM -RA BKN050 OVC080
     FM310000 08012KT P6SM -RA OVC050
     FM310300 09010KT 5SM -RA BR OVC035
     FM310600 09005KT 4SM -RA BR SCT015 OVC025=

USA.gov is the U.S. government's official web portal to all federal, state and local government web resources and services.